createdAt,value
2017-08-22T00:00:42.401Z,19.28
2017-08-22T00:03:09.741Z,19.29
2017-08-22T00:05:36.916Z,19.29
2017-08-22T00:08:04.604Z,19.29
2017-08-22T00:10:31.780Z,19.29
2017-08-22T00:13:00.311Z,19.29
2017-08-22T00:15:27.776Z,19.29
2017-08-22T00:17:55.039Z,19.29
2017-08-22T00:20:22.213Z,19.29
2017-08-22T00:22:49.386Z,19.29
2017-08-22T00:25:16.926Z,19.29
2017-08-22T00:27:44.765Z,19.30
2017-08-22T00:30:11.961Z,19.29
2017-08-22T00:32:39.174Z,19.29
2017-08-22T00:35:06.349Z,19.29
2017-08-22T00:37:33.776Z,19.28
2017-08-22T00:40:01.156Z,19.29
2017-08-22T00:42:29.313Z,19.28
2017-08-22T00:44:56.517Z,19.29
2017-08-22T00:47:23.913Z,19.28
2017-08-22T00:49:51.426Z,19.29
2017-08-22T00:52:18.944Z,19.29
2017-08-22T00:54:46.286Z,19.29
2017-08-22T00:57:13.746Z,19.28
2017-08-22T00:59:41.272Z,19.28
2017-08-22T01:02:08.657Z,19.29
2017-08-22T01:04:36.120Z,19.29
2017-08-22T01:07:03.885Z,19.28
2017-08-22T01:09:31.517Z,19.28
2017-08-22T01:11:58.703Z,19.29
2017-08-22T01:14:25.888Z,19.28
2017-08-22T01:16:53.076Z,19.28
2017-08-22T01:19:20.686Z,19.28
2017-08-22T01:21:48.180Z,19.28
2017-08-22T01:24:15.349Z,19.28
2017-08-22T01:26:42.616Z,19.27
2017-08-22T01:29:10.133Z,19.27
2017-08-22T01:31:37.321Z,19.28
2017-08-22T01:34:04.671Z,19.28
2017-08-22T01:36:31.861Z,19.29
2017-08-22T01:38:59.294Z,19.28
2017-08-22T01:41:27.056Z,19.28
2017-08-22T01:43:54.615Z,19.28
2017-08-22T01:46:21.971Z,19.28
2017-08-22T01:48:49.596Z,19.28
2017-08-22T01:51:17.192Z,19.27
2017-08-22T01:53:44.533Z,19.28
2017-08-22T01:56:12.414Z,19.29
2017-08-22T01:58:40.177Z,19.28
2017-08-22T02:01:07.463Z,19.27
2017-08-22T02:03:34.978Z,19.28
2017-08-22T02:06:02.550Z,19.28
2017-08-22T02:08:29.720Z,19.28
2017-08-22T02:10:57.208Z,19.28
2017-08-22T02:13:24.605Z,19.28
2017-08-22T02:15:51.795Z,19.29
2017-08-22T02:18:18.962Z,19.28
2017-08-22T02:20:46.147Z,19.28
2017-08-22T02:23:13.720Z,19.28
2017-08-22T02:25:41.287Z,19.28
2017-08-22T02:28:08.537Z,19.28
2017-08-22T02:30:35.711Z,19.27
2017-08-22T02:33:03.042Z,19.27
2017-08-22T02:35:30.637Z,19.28
2017-08-22T02:37:57.947Z,19.28
2017-08-22T02:40:25.138Z,19.28
2017-08-22T02:42:52.555Z,19.27
2017-08-22T02:45:19.740Z,19.28
2017-08-22T02:47:47.165Z,19.27
2017-08-22T02:50:14.689Z,19.27
2017-08-22T02:52:42.080Z,19.28
2017-08-22T02:55:09.541Z,19.27
2017-08-22T02:57:36.991Z,19.27
2017-08-22T03:00:04.172Z,19.27
2017-08-22T03:02:31.601Z,19.27
2017-08-22T03:04:58.788Z,19.28
2017-08-22T03:07:26.318Z,19.27
2017-08-22T03:09:53.665Z,19.27
2017-08-22T03:12:21.174Z,19.27
2017-08-22T03:14:48.580Z,19.27
2017-08-22T03:17:15.764Z,19.26
2017-08-22T03:19:43.181Z,19.27
2017-08-22T03:22:10.844Z,19.27
2017-08-22T03:24:38.027Z,19.27
2017-08-22T03:27:05.201Z,19.27
2017-08-22T03:29:32.396Z,19.27
2017-08-22T03:31:59.565Z,19.27
2017-08-22T03:34:27.056Z,19.27
2017-08-22T03:36:54.474Z,19.27
2017-08-22T03:39:21.645Z,19.26
2017-08-22T03:41:48.813Z,19.27
2017-08-22T03:44:16.453Z,19.27
2017-08-22T03:46:43.636Z,19.27
2017-08-22T03:49:10.824Z,19.26
2017-08-22T03:51:38.285Z,19.27
2017-08-22T03:54:05.744Z,19.27
2017-08-22T03:56:33.391Z,19.27
2017-08-22T03:59:00.584Z,19.26
2017-08-22T04:01:27.874Z,19.26
2017-08-22T04:03:55.056Z,19.27
2017-08-22T04:06:22.241Z,19.27
2017-08-22T04:08:49.409Z,19.26
2017-08-22T04:11:16.712Z,19.26
2017-08-22T04:13:44.064Z,19.26
2017-08-22T04:16:11.247Z,19.26
2017-08-22T04:18:38.477Z,19.26
2017-08-22T04:21:05.650Z,19.26
2017-08-22T04:23:33.161Z,19.25
2017-08-22T04:26:00.337Z,19.26
2017-08-22T04:28:27.871Z,19.25
2017-08-22T04:30:55.313Z,19.26
2017-08-22T04:33:22.605Z,19.25
2017-08-22T04:35:50.061Z,19.26
2017-08-22T04:38:17.565Z,19.26
2017-08-22T04:40:45.083Z,19.25
2017-08-22T04:43:12.428Z,19.25
2017-08-22T04:45:39.769Z,19.26
2017-08-22T04:48:06.951Z,19.25
2017-08-22T04:50:34.125Z,19.25
2017-08-22T04:53:01.398Z,19.25
2017-08-22T04:55:28.792Z,19.25
2017-08-22T04:57:55.966Z,19.25
2017-08-22T05:00:23.405Z,19.24
2017-08-22T05:02:50.917Z,19.26
2017-08-22T05:05:18.320Z,19.25
2017-08-22T05:07:45.781Z,19.25
2017-08-22T05:10:13.146Z,19.25
2017-08-22T05:12:40.331Z,19.25
2017-08-22T05:15:07.509Z,19.25
2017-08-22T05:17:34.992Z,19.25
2017-08-22T05:20:02.183Z,19.25
2017-08-22T05:22:29.375Z,19.25
2017-08-22T05:24:56.800Z,19.20
2017-08-22T05:27:24.394Z,19.24
2017-08-22T05:29:51.567Z,19.24
2017-08-22T05:32:19.004Z,19.25
2017-08-22T05:34:46.610Z,19.25
2017-08-22T05:37:13.785Z,19.26
2017-08-22T05:39:41.281Z,19.25
2017-08-22T05:42:08.635Z,19.26
2017-08-22T05:44:36.291Z,19.25
2017-08-22T05:47:03.532Z,19.26
2017-08-22T05:49:31.007Z,19.26
2017-08-22T05:51:58.177Z,19.26
2017-08-22T05:54:25.610Z,19.25
2017-08-22T05:56:52.785Z,19.25
2017-08-22T05:59:19.971Z,19.25
2017-08-22T06:01:47.157Z,19.25
2017-08-22T06:04:14.348Z,19.25
2017-08-22T06:06:41.521Z,19.25
2017-08-22T06:09:08.708Z,19.26
2017-08-22T06:11:35.885Z,19.25
2017-08-22T06:14:03.119Z,19.25
2017-08-22T06:16:30.290Z,19.25
2017-08-22T06:18:57.789Z,19.25
2017-08-22T06:21:24.981Z,19.25
2017-08-22T06:23:52.159Z,19.25
2017-08-22T06:26:19.488Z,19.25
2017-08-22T06:28:46.969Z,19.24
2017-08-22T06:31:14.351Z,19.25
2017-08-22T06:33:41.540Z,19.25
2017-08-22T06:36:09.036Z,19.25
2017-08-22T06:38:36.206Z,19.25
2017-08-22T06:41:03.626Z,19.25
2017-08-22T06:43:30.797Z,19.25
2017-08-22T06:45:58.408Z,19.25
2017-08-22T06:48:25.680Z,19.25
2017-08-22T06:50:53.136Z,19.25
2017-08-22T06:53:20.305Z,19.25
2017-08-22T06:55:47.487Z,19.25
2017-08-22T06:58:14.971Z,19.25
2017-08-22T07:00:42.156Z,19.25
2017-08-22T07:03:09.343Z,19.24
2017-08-22T07:05:36.753Z,19.24
2017-08-22T07:08:04.107Z,19.24
2017-08-22T07:10:31.566Z,19.23
2017-08-22T07:12:58.738Z,19.25
2017-08-22T07:15:26.172Z,19.24
2017-08-22T07:17:53.631Z,19.24
2017-08-22T07:20:21.088Z,19.24
2017-08-22T07:22:48.257Z,19.24
2017-08-22T07:25:15.691Z,19.23
2017-08-22T07:27:42.876Z,19.25
2017-08-22T07:30:10.061Z,19.24
2017-08-22T07:32:37.254Z,19.25
2017-08-22T07:35:04.791Z,19.25
2017-08-22T07:37:32.379Z,19.24
2017-08-22T07:39:59.558Z,19.24
2017-08-22T07:42:26.725Z,19.25
2017-08-22T07:44:54.117Z,19.25
2017-08-22T07:47:21.304Z,19.25
2017-08-22T07:49:48.951Z,19.24
2017-08-22T07:52:16.505Z,19.24
2017-08-22T07:54:44.029Z,19.24
2017-08-22T07:57:11.469Z,19.25
2017-08-22T07:59:38.988Z,19.24
2017-08-22T08:02:06.405Z,19.25
2017-08-22T08:04:33.773Z,19.25
2017-08-22T08:07:00.941Z,19.25
2017-08-22T08:09:28.144Z,19.25
2017-08-22T08:11:55.337Z,19.25
2017-08-22T08:14:22.592Z,19.25
2017-08-22T08:16:49.783Z,19.25
2017-08-22T08:19:16.996Z,19.25
2017-08-22T08:21:44.165Z,19.24
2017-08-22T08:24:11.908Z,19.25
2017-08-22T08:26:39.356Z,19.25
2017-08-22T08:29:06.825Z,19.25
2017-08-22T08:31:34.273Z,19.25
2017-08-22T08:34:01.728Z,19.26
2017-08-22T08:36:28.916Z,19.25
2017-08-22T08:38:56.335Z,19.24
2017-08-22T08:41:23.887Z,19.24
2017-08-22T08:43:51.379Z,19.25
2017-08-22T08:46:18.571Z,19.25
2017-08-22T08:48:46.041Z,19.25
2017-08-22T08:51:13.533Z,19.24
2017-08-22T08:53:40.705Z,19.25
2017-08-22T08:56:07.925Z,19.24
2017-08-22T08:58:35.460Z,19.24
2017-08-22T09:01:03.053Z,19.24
2017-08-22T09:03:30.611Z,19.24
2017-08-22T09:05:58.054Z,19.24
2017-08-22T09:08:25.629Z,19.23
2017-08-22T09:10:52.796Z,19.23
2017-08-22T09:13:20.190Z,19.24
2017-08-22T09:15:47.361Z,19.24
2017-08-22T09:18:14.739Z,19.24
2017-08-22T09:20:42.245Z,19.23
2017-08-22T09:23:09.421Z,19.24
2017-08-22T09:25:36.607Z,19.25
2017-08-22T09:28:03.952Z,19.24
2017-08-22T09:30:31.592Z,19.25
2017-08-22T09:32:58.765Z,19.25
2017-08-22T09:35:26.325Z,19.23
2017-08-22T09:37:53.512Z,19.24
2017-08-22T09:40:20.924Z,19.24
2017-08-22T09:42:48.302Z,19.24
2017-08-22T09:45:15.566Z,19.24
2017-08-22T09:47:42.751Z,19.24
2017-08-22T09:50:09.926Z,19.24
2017-08-22T09:52:37.102Z,19.24
2017-08-22T09:55:04.288Z,19.24
2017-08-22T09:57:31.684Z,19.24
2017-08-22T09:59:59.177Z,19.24
2017-08-22T10:02:26.364Z,19.24
2017-08-22T10:04:53.657Z,19.24
2017-08-22T10:07:21.179Z,19.24
2017-08-22T10:09:48.353Z,19.24
2017-08-22T10:12:15.709Z,19.25
2017-08-22T10:14:43.231Z,19.25
2017-08-22T10:17:10.419Z,19.24
2017-08-22T10:19:37.784Z,19.24
2017-08-22T10:22:05.434Z,19.25
2017-08-22T10:24:32.648Z,19.25
2017-08-22T10:26:59.835Z,19.25
2017-08-22T10:29:27.015Z,19.24
2017-08-22T10:31:54.530Z,19.23
2017-08-22T10:34:21.706Z,19.24
2017-08-22T10:36:49.115Z,19.25
2017-08-22T10:39:16.517Z,19.24
2017-08-22T10:41:43.976Z,19.24
2017-08-22T10:44:11.493Z,19.24
2017-08-22T10:46:38.893Z,19.24
2017-08-22T10:49:06.087Z,19.25
2017-08-22T10:51:33.271Z,19.24
2017-08-22T10:54:00.433Z,19.24
2017-08-22T10:56:27.795Z,19.23
2017-08-22T10:58:54.965Z,19.24
2017-08-22T11:01:22.517Z,19.24
2017-08-22T11:03:49.719Z,19.23
2017-08-22T11:06:17.008Z,19.24
2017-08-22T11:08:44.199Z,19.24
2017-08-22T11:11:11.689Z,19.24
2017-08-22T11:13:39.076Z,19.24
2017-08-22T11:16:06.249Z,19.25
2017-08-22T11:18:33.741Z,19.24
2017-08-22T11:21:01.141Z,19.24
2017-08-22T11:23:28.323Z,19.24
2017-08-22T11:25:55.750Z,19.24
2017-08-22T11:28:23.258Z,19.25
2017-08-22T11:30:50.430Z,19.24
2017-08-22T11:33:17.813Z,19.24
2017-08-22T11:35:45.270Z,19.24
2017-08-22T11:38:12.782Z,19.25
2017-08-22T11:40:40.186Z,19.25
2017-08-22T11:43:07.380Z,19.25
2017-08-22T11:45:34.932Z,19.27
2017-08-22T11:48:02.561Z,19.29
2017-08-22T11:50:29.733Z,19.32
2017-08-22T11:52:57.161Z,19.32
2017-08-22T11:55:24.626Z,19.32
2017-08-22T11:57:52.273Z,19.30
2017-08-22T12:00:19.449Z,19.30
2017-08-22T12:02:46.685Z,19.28
2017-08-22T12:05:14.201Z,19.28
2017-08-22T12:07:41.373Z,19.28
2017-08-22T12:10:09.060Z,19.27
2017-08-22T12:12:36.512Z,19.26
2017-08-22T12:15:04.045Z,19.26
2017-08-22T12:17:31.231Z,19.27
2017-08-22T12:19:58.581Z,19.27
2017-08-22T12:22:26.033Z,19.26
2017-08-22T12:24:53.220Z,19.26
2017-08-22T12:27:20.388Z,19.26
2017-08-22T12:29:48.577Z,19.27
2017-08-22T12:32:16.044Z,19.26
2017-08-22T12:34:43.215Z,19.26
2017-08-22T12:37:10.382Z,19.25
2017-08-22T12:39:37.621Z,19.26
2017-08-22T12:42:05.140Z,19.25
2017-08-22T12:44:32.310Z,19.26
2017-08-22T12:46:59.827Z,19.25
2017-08-22T12:49:27.140Z,19.25
2017-08-22T12:51:54.332Z,19.25
2017-08-22T12:54:21.500Z,19.25
2017-08-22T12:56:48.680Z,19.25
2017-08-22T12:59:16.363Z,19.25
2017-08-22T13:01:43.881Z,19.26
2017-08-22T13:04:11.373Z,19.26
2017-08-22T13:06:38.915Z,19.25
2017-08-22T13:09:06.498Z,19.25
2017-08-22T13:11:33.999Z,19.25
2017-08-22T13:14:01.520Z,19.25
2017-08-22T13:16:28.760Z,19.25
2017-08-22T13:18:56.014Z,19.24
2017-08-22T13:21:23.186Z,19.25
2017-08-22T13:23:50.367Z,19.27
2017-08-22T13:26:17.537Z,19.27
2017-08-22T13:28:44.954Z,19.26
2017-08-22T13:31:12.467Z,19.27
2017-08-22T13:33:40.035Z,19.26
2017-08-22T13:36:07.213Z,19.27
2017-08-22T13:38:34.595Z,19.26
2017-08-22T13:41:01.768Z,19.26
2017-08-22T13:43:28.942Z,19.26
2017-08-22T13:45:56.197Z,19.26
2017-08-22T13:48:23.373Z,19.26
2017-08-22T13:50:50.553Z,19.23
2017-08-22T13:53:17.957Z,19.25
2017-08-22T13:55:45.145Z,19.25
2017-08-22T13:58:12.328Z,19.25
2017-08-22T14:00:39.507Z,19.25
2017-08-22T14:03:06.922Z,19.25
2017-08-22T14:05:34.515Z,19.25
2017-08-22T14:08:02.091Z,19.25
2017-08-22T14:10:29.261Z,19.24
2017-08-22T14:12:56.702Z,19.26
2017-08-22T14:15:24.335Z,19.25
2017-08-22T14:17:51.509Z,19.25
2017-08-22T14:20:18.844Z,19.24
2017-08-22T14:22:46.015Z,19.25
2017-08-22T14:25:13.369Z,19.25
2017-08-22T14:27:41.000Z,19.24
2017-08-22T14:30:08.593Z,19.25
2017-08-22T14:32:36.033Z,19.24
2017-08-22T14:35:03.687Z,19.25
2017-08-22T14:37:30.954Z,19.24
2017-08-22T14:39:58.129Z,19.25
2017-08-22T14:42:25.312Z,19.24
2017-08-22T14:44:52.499Z,19.25
2017-08-22T14:47:19.675Z,19.24
2017-08-22T14:49:47.012Z,19.23
2017-08-22T14:52:14.525Z,19.24
2017-08-22T14:54:41.929Z,19.24
2017-08-22T14:57:09.115Z,19.25
2017-08-22T14:59:36.300Z,19.24
2017-08-22T15:02:03.480Z,19.24
2017-08-22T15:04:30.836Z,19.24
2017-08-22T15:06:58.293Z,19.24
2017-08-22T15:09:25.465Z,19.24
2017-08-22T15:11:52.901Z,19.24
2017-08-22T15:14:20.408Z,19.24
2017-08-22T15:16:47.618Z,19.25
2017-08-22T15:19:14.803Z,19.24
2017-08-22T15:21:42.310Z,19.25
2017-08-22T15:24:09.567Z,19.25
2017-08-22T15:26:37.039Z,19.23
2017-08-22T15:29:04.484Z,19.24
2017-08-22T15:31:31.945Z,19.24
2017-08-22T15:33:59.117Z,19.23
2017-08-22T15:36:26.865Z,19.23
2017-08-22T15:38:54.031Z,19.23
2017-08-22T15:41:21.465Z,19.23
2017-08-22T15:43:49.020Z,19.24
2017-08-22T15:46:16.193Z,19.23
2017-08-22T15:48:43.362Z,19.23
2017-08-22T15:51:10.875Z,19.23
2017-08-22T15:53:38.115Z,19.24
2017-08-22T15:56:06.882Z,19.23
2017-08-22T15:58:34.058Z,19.23
2017-08-22T16:01:01.427Z,19.23
2017-08-22T16:03:28.627Z,19.23
2017-08-22T16:05:55.838Z,19.23
2017-08-22T16:08:23.188Z,19.23
2017-08-22T16:10:50.644Z,19.24
2017-08-22T16:13:18.256Z,19.23
2017-08-22T16:15:45.872Z,19.22
2017-08-22T16:18:13.059Z,19.23
2017-08-22T16:20:40.787Z,19.22
2017-08-22T16:23:08.426Z,19.24
2017-08-22T16:25:35.611Z,19.23
2017-08-22T16:28:03.156Z,19.23
2017-08-22T16:30:30.343Z,19.23
2017-08-22T16:32:57.508Z,19.23
2017-08-22T16:35:24.707Z,19.23
2017-08-22T16:37:51.881Z,19.24
2017-08-22T16:40:19.276Z,19.23
2017-08-22T16:42:46.668Z,19.23
2017-08-22T16:45:14.311Z,19.23
2017-08-22T16:47:41.893Z,19.23
2017-08-22T16:50:09.345Z,19.22
2017-08-22T16:52:36.532Z,19.22
2017-08-22T16:55:03.701Z,19.23
2017-08-22T16:57:30.889Z,19.23
2017-08-22T16:59:58.071Z,19.23
2017-08-22T17:02:25.400Z,19.22
2017-08-22T17:04:52.581Z,19.22
2017-08-22T17:07:20.195Z,19.23
2017-08-22T17:09:47.537Z,19.22
2017-08-22T17:12:14.718Z,19.22
2017-08-22T17:14:42.072Z,19.22
2017-08-22T17:17:09.535Z,19.22
2017-08-22T17:19:36.721Z,19.25
2017-08-22T17:22:04.252Z,19.23
2017-08-22T17:24:31.452Z,19.24
2017-08-22T17:26:58.635Z,19.24
2017-08-22T17:29:25.894Z,19.24
2017-08-22T17:31:53.341Z,19.24
2017-08-22T17:34:20.527Z,19.24
2017-08-22T17:36:47.702Z,19.24
2017-08-22T17:39:15.224Z,19.24
2017-08-22T17:41:42.742Z,19.24
2017-08-22T17:44:10.013Z,19.24
2017-08-22T17:46:37.481Z,19.24
2017-08-22T17:49:04.671Z,19.23
2017-08-22T17:51:32.086Z,19.23
2017-08-22T17:53:59.277Z,19.23
2017-08-22T17:56:26.450Z,19.23
2017-08-22T17:58:54.160Z,19.23
2017-08-22T18:01:21.344Z,19.23
2017-08-22T18:03:48.761Z,19.23
2017-08-22T18:06:16.529Z,19.23
2017-08-22T18:08:44.016Z,19.23
2017-08-22T18:11:11.189Z,19.23
2017-08-22T18:13:38.373Z,19.23
2017-08-22T18:16:05.545Z,19.23
2017-08-22T18:18:32.808Z,19.23
2017-08-22T18:20:59.992Z,19.22
2017-08-22T18:23:27.566Z,19.23
2017-08-22T18:25:54.742Z,19.23
2017-08-22T18:28:22.102Z,19.23
2017-08-22T18:30:49.561Z,19.23
2017-08-22T18:33:16.744Z,19.23
2017-08-22T18:35:43.932Z,19.23
2017-08-22T18:38:11.102Z,19.23
2017-08-22T18:40:38.291Z,19.23
2017-08-22T18:43:05.621Z,19.23
2017-08-22T18:45:33.077Z,19.23
2017-08-22T18:48:00.254Z,19.23
2017-08-22T18:50:28.303Z,19.23
2017-08-22T18:52:55.801Z,19.23
2017-08-22T18:55:23.218Z,19.23
2017-08-22T18:57:50.862Z,19.23
2017-08-22T19:00:18.128Z,19.23
2017-08-22T19:02:45.306Z,19.23
2017-08-22T19:05:12.966Z,19.24
2017-08-22T19:07:40.199Z,19.23
2017-08-22T19:10:07.776Z,19.24
2017-08-22T19:12:35.417Z,19.24
2017-08-22T19:15:02.594Z,19.24
2017-08-22T19:17:30.015Z,19.23
2017-08-22T19:19:57.468Z,19.24
2017-08-22T19:22:24.712Z,19.23
2017-08-22T19:24:51.900Z,19.24
2017-08-22T19:27:19.296Z,19.27
2017-08-22T19:29:46.548Z,19.30
